Main page
METAR-TAF:

METAR-TAF

Airports :

RAF Woodvale

Woodvale, England

latitude: 53-34-54N, longitude: 003-03-20W, elevation: 11 m

Current weather observation

The report was made 3 hours and 16 minutes ago, at 15:50 UTC
Wind 10 kt from the South/Southwest
Temperature 11°C
Humidity 82%
Pressure 1019 hPa
Visibility 10 km or more
Scattered clouds at a height of 4000 ft

METAR: EGOW 131550Z 20010KT 9999 SCT040 11/08 Q1019 BLU

Time: 19:06 (19:06 UTC)

Forecast

The report was made 5 hours and 43 minutes ago, at 13:23 UTC
Forecast valid from 13 at 15 UTC to 13 at 18 UTC
Wind 12 kt from the West/Southwest
Visibility 10 km or more
Few clouds at a height of 2000 ft

TAF: EGOW 131323Z 1315/1318 24012KT 9999 FEW020

Weather observations and forecasts of more than 4000 airports (METAR and TAF reports).

The available stations are represented by yellow and red dots on the map.

Hover mouse over dot to see the name of the station.

Then click to see weather observations and forecasts.

To change the map : click on the green buttons with a black cross to zoom in, on the green button with a dash to zoom out, or on the green arrows for adjacent maps.


METAR-TAF: